Аэропорт: Павлодар. Павлодар

ICAO: UASP

METAR:
2020-08-09 22:30:00
UASP 092230Z 17002MPS CAVOK 19/14 Q0999 R21/0///70 NOSIG RMK QFE738/0984
METAR:
2020-08-09 20:00:00
TAF UASP 092000Z 0921/1006 16003MPS 9999 BKN020CB TEMPO 0921/1003 VRB12MPS 3100 -TSRA BKN011CB